createdAt,value
2019-03-22T00:01:18.039Z,11.10
2019-03-22T00:03:46.497Z,13.00
2019-03-22T00:06:14.988Z,12.80
2019-03-22T00:08:43.446Z,17.63
2019-03-22T00:11:13.248Z,17.67
2019-03-22T00:13:41.773Z,13.23
2019-03-22T00:16:10.304Z,13.50
2019-03-22T00:18:38.841Z,10.97
2019-03-22T00:21:07.326Z,10.77
2019-03-22T00:23:35.920Z,13.13
2019-03-22T00:26:06.595Z,9.37
2019-03-22T00:28:35.121Z,14.33
2019-03-22T00:31:03.634Z,9.80
2019-03-22T00:33:32.116Z,13.50
2019-03-22T00:36:00.702Z,10.00
2019-03-22T00:38:29.520Z,14.33
2019-03-22T00:40:58.023Z,12.10
2019-03-22T00:43:26.582Z,11.13
2019-03-22T00:45:58.079Z,9.73
2019-03-22T00:48:26.650Z,9.50
2019-03-22T00:50:55.575Z,10.43
2019-03-22T00:53:24.146Z,11.17
2019-03-22T00:55:52.785Z,8.97
2019-03-22T00:58:21.431Z,11.17
2019-03-22T01:00:52.314Z,10.47
2019-03-22T01:03:20.240Z,9.40
2019-03-22T01:05:48.824Z,10.37
2019-03-22T01:08:20.227Z,9.97
2019-03-22T01:10:48.895Z,12.50
2019-03-22T01:13:19.008Z,13.07
2019-03-22T01:15:47.581Z,11.97
2019-03-22T01:18:17.822Z,11.10
2019-03-22T01:20:46.397Z,9.97
2019-03-22T01:23:14.952Z,10.63
2019-03-22T01:25:43.541Z,11.73
2019-03-22T01:28:14.798Z,10.20
2019-03-22T01:30:43.370Z,11.23
2019-03-22T01:33:11.974Z,9.77
2019-03-22T01:35:40.544Z,10.87
2019-03-22T01:38:09.100Z,11.10
2019-03-22T01:40:37.688Z,11.83
2019-03-22T01:43:06.253Z,8.07
2019-03-22T01:45:37.270Z,12.53
2019-03-22T01:48:05.992Z,8.50
2019-03-22T01:50:41.774Z,11.53
2019-03-22T01:53:22.007Z,10.17
2019-03-22T01:56:13.850Z,8.53
2019-03-22T01:59:06.841Z,11.10
2019-03-22T02:04:37.989Z,7.87
2019-03-22T02:07:10.873Z,7.97
2019-03-22T02:09:42.488Z,6.80
2019-03-22T02:12:11.387Z,8.63
2019-03-22T02:14:39.961Z,9.13
2019-03-22T02:17:08.580Z,9.07
2019-03-22T02:19:37.157Z,7.77
2019-03-22T02:22:11.739Z,8.37
2019-03-22T02:24:43.095Z,7.10
2019-03-22T02:27:11.739Z,8.40
2019-03-22T02:29:44.344Z,6.80
2019-03-22T02:32:12.053Z,10.70
2019-03-22T02:34:42.145Z,8.97
2019-03-22T02:37:12.256Z,8.30
2019-03-22T02:39:42.483Z,7.37
2019-03-22T02:42:14.143Z,10.13
2019-03-22T02:44:42.737Z,8.30
2019-03-22T02:47:13.850Z,12.83
2019-03-22T02:49:42.442Z,7.53
2019-03-22T02:52:13.435Z,9.27
2019-03-22T02:54:41.994Z,8.23
2019-03-22T02:57:10.598Z,7.83
2019-03-22T02:59:39.181Z,9.30
2019-03-22T03:02:08.004Z,6.60
2019-03-22T03:04:36.672Z,8.20
2019-03-22T03:07:07.966Z,10.57
2019-03-22T03:09:36.635Z,9.33
2019-03-22T03:12:05.639Z,10.77
2019-03-22T03:14:34.237Z,9.70
2019-03-22T03:17:02.817Z,10.10
2019-03-22T03:19:39.952Z,9.67
2019-03-22T03:22:08.607Z,11.50
2019-03-22T03:24:37.169Z,8.23
2019-03-22T03:27:06.888Z,11.37
2019-03-22T03:29:35.412Z,8.40
2019-03-22T03:32:04.129Z,9.80
2019-03-22T03:34:36.277Z,9.40
2019-03-22T03:37:04.829Z,8.97
2019-03-22T03:39:33.432Z,8.20
2019-03-22T03:42:02.239Z,9.63
2019-03-22T03:44:30.803Z,8.10
2019-03-22T03:47:10.469Z,8.27
2019-03-22T03:49:44.557Z,11.20
2019-03-22T03:52:13.155Z,9.60
2019-03-22T03:54:41.732Z,6.83
2019-03-22T03:57:11.085Z,10.20
2019-03-22T03:59:39.683Z,9.50
2019-03-22T04:02:08.250Z,10.57
2019-03-22T04:04:36.825Z,9.30
2019-03-22T04:07:06.973Z,10.20
2019-03-22T04:09:37.060Z,12.83
2019-03-22T04:12:05.714Z,10.50
2019-03-22T04:14:34.281Z,9.20
2019-03-22T04:17:02.879Z,6.63
2019-03-22T04:19:31.435Z,7.40
2019-03-22T04:21:59.998Z,11.00
2019-03-22T04:24:28.646Z,14.03
2019-03-22T04:26:57.493Z,9.33
2019-03-22T04:29:26.079Z,7.73
2019-03-22T04:31:57.462Z,11.00
2019-03-22T04:34:27.579Z,10.43
2019-03-22T04:36:56.180Z,10.50
2019-03-22T04:39:25.070Z,7.40
2019-03-22T04:41:53.717Z,9.03
2019-03-22T04:44:22.291Z,10.33
2019-03-22T04:46:51.522Z,9.17
2019-03-22T04:49:22.727Z,9.27
2019-03-22T04:51:52.837Z,12.20
2019-03-22T04:54:21.968Z,9.33
2019-03-22T04:56:53.971Z,8.57
2019-03-22T04:59:23.312Z,7.00
2019-03-22T05:01:54.722Z,9.53
2019-03-22T05:04:24.844Z,10.13
2019-03-22T05:06:53.758Z,10.00
2019-03-22T05:09:25.418Z,8.77
2019-03-22T05:11:55.040Z,9.27
2019-03-22T05:14:25.035Z,8.23
2019-03-22T05:16:55.217Z,10.10
2019-03-22T05:19:29.284Z,8.40
2019-03-22T05:21:59.075Z,8.07
2019-03-22T05:24:29.334Z,7.63
2019-03-22T05:26:59.625Z,11.70
2019-03-22T05:29:31.260Z,7.77
2019-03-22T05:32:02.916Z,10.63
2019-03-22T05:34:31.549Z,10.30
2019-03-22T05:37:00.153Z,8.83
2019-03-22T05:39:28.800Z,10.97
2019-03-22T05:41:57.426Z,7.30
2019-03-22T05:44:32.137Z,9.77
2019-03-22T05:47:09.099Z,8.00
2019-03-22T05:49:38.044Z,10.00
2019-03-22T05:52:06.633Z,12.20
2019-03-22T05:54:35.202Z,9.77
2019-03-22T05:57:12.753Z,8.27
2019-03-22T05:59:42.560Z,7.50
2019-03-22T06:02:05.457Z,9.00
2019-03-22T06:04:51.911Z,9.97
2019-03-22T06:07:31.327Z,9.67
2019-03-22T06:10:00.457Z,8.27
2019-03-22T06:12:29.096Z,14.87
2019-03-22T06:14:57.694Z,10.73
2019-03-22T06:17:30.651Z,9.90
2019-03-22T06:19:59.215Z,9.77
2019-03-22T06:22:27.840Z,7.50
2019-03-22T06:24:59.041Z,9.50
2019-03-22T06:27:27.625Z,10.17
2019-03-22T06:30:04.486Z,10.53
2019-03-22T06:32:35.905Z,9.93
2019-03-22T06:35:06.436Z,13.03
2019-03-22T06:37:37.893Z,10.57
2019-03-22T06:40:24.052Z,14.33
2019-03-22T06:42:54.193Z,10.17
2019-03-22T06:45:22.835Z,13.70
2019-03-22T06:48:21.972Z,8.30
2019-03-22T06:50:56.294Z,9.83
2019-03-22T06:53:35.624Z,9.20
2019-03-22T06:56:16.778Z,13.43
2019-03-22T06:59:01.752Z,12.27
2019-03-22T07:01:34.840Z,13.70
2019-03-22T07:04:05.016Z,13.90
2019-03-22T07:06:35.411Z,17.10
2019-03-22T07:09:06.346Z,15.43
2019-03-22T07:11:34.897Z,13.00
2019-03-22T07:14:03.561Z,17.33
2019-03-22T07:16:34.658Z,14.27
2019-03-22T07:19:18.395Z,15.43
2019-03-22T07:21:48.567Z,14.27
2019-03-22T07:24:36.794Z,12.53
2019-03-22T07:27:14.976Z,10.10
2019-03-22T07:29:48.287Z,17.40
2019-03-22T07:32:20.912Z,11.47
2019-03-22T07:34:49.524Z,15.97
2019-03-22T07:37:18.199Z,13.67
2019-03-22T07:39:48.743Z,19.30
2019-03-22T07:42:17.682Z,16.10
2019-03-22T07:44:46.288Z,18.37
2019-03-22T07:47:16.403Z,15.17
2019-03-22T07:49:48.843Z,15.93
2019-03-22T07:52:17.401Z,14.23
2019-03-22T07:54:45.981Z,14.60
2019-03-22T07:57:16.196Z,17.67
2019-03-22T07:59:44.783Z,14.80
2019-03-22T08:02:13.511Z,16.37
2019-03-22T08:04:42.061Z,17.47
2019-03-22T08:07:10.631Z,18.27
2019-03-22T08:09:39.248Z,13.37
2019-03-22T08:12:07.804Z,15.00
2019-03-22T08:14:39.371Z,16.40
2019-03-22T08:17:11.074Z,14.20
2019-03-22T08:19:39.724Z,12.70
2019-03-22T08:22:08.427Z,17.37
2019-03-22T08:24:36.994Z,14.70
2019-03-22T08:27:05.598Z,18.30
2019-03-22T08:29:34.191Z,14.87
2019-03-22T08:32:23.618Z,15.73
2019-03-22T08:34:52.241Z,14.43
2019-03-22T08:37:20.880Z,15.53
2019-03-22T08:39:50.364Z,19.40
2019-03-22T08:42:19.253Z,16.10
2019-03-22T08:48:01.017Z,15.53
2019-03-22T08:53:38.805Z,14.70
2019-03-22T08:56:13.207Z,17.70
2019-03-22T08:58:46.267Z,14.23
2019-03-22T09:01:14.025Z,13.93
2019-03-22T09:03:42.582Z,15.90
2019-03-22T09:06:12.947Z,10.50
2019-03-22T09:08:41.455Z,13.27
2019-03-22T09:11:10.151Z,11.40
2019-03-22T09:13:38.822Z,13.97
2019-03-22T09:16:07.361Z,14.73
2019-03-22T09:18:36.482Z,15.73
2019-03-22T09:21:05.164Z,12.50
2019-03-22T09:23:33.819Z,11.47
2019-03-22T09:26:02.467Z,15.53
2019-03-22T09:28:30.992Z,10.50
2019-03-22T09:31:09.821Z,14.13
2019-03-22T09:33:32.619Z,15.87
2019-03-22T09:36:01.187Z,18.60
2019-03-22T09:38:29.825Z,15.17
2019-03-22T09:40:58.440Z,15.23
2019-03-22T09:43:27.105Z,13.57
2019-03-22T09:45:58.821Z,12.57
2019-03-22T09:48:27.855Z,15.90
2019-03-22T09:50:56.390Z,16.53
2019-03-22T09:53:24.977Z,10.90
2019-03-22T09:55:53.685Z,12.43
2019-03-22T09:58:32.924Z,14.43
2019-03-22T10:01:04.340Z,16.67
2019-03-22T10:03:32.993Z,21.80
2019-03-22T10:06:01.664Z,14.80
2019-03-22T10:08:31.286Z,12.67
2019-03-22T10:10:59.841Z,10.87
2019-03-22T10:13:32.249Z,15.37
2019-03-22T10:16:01.011Z,15.47
2019-03-22T10:18:38.899Z,15.57
2019-03-22T10:21:22.254Z,14.30
2019-03-22T10:23:45.434Z,13.00
2019-03-22T10:26:19.157Z,16.53
2019-03-22T10:28:47.371Z,24.97
2019-03-22T10:31:19.844Z,10.93
2019-03-22T10:33:52.562Z,14.13
2019-03-22T10:36:23.582Z,10.93
2019-03-22T10:38:52.194Z,11.07
2019-03-22T10:41:20.805Z,16.83
2019-03-22T10:43:57.189Z,16.20
2019-03-22T10:46:25.960Z,15.37
2019-03-22T10:48:57.573Z,16.73
2019-03-22T10:51:56.610Z,13.30
2019-03-22T10:54:27.189Z,16.13
2019-03-22T10:57:04.734Z,14.83
2019-03-22T10:59:41.508Z,12.63
2019-03-22T11:02:29.508Z,16.30
2019-03-22T11:05:14.508Z,15.67
2019-03-22T11:07:44.663Z,12.57
2019-03-22T11:10:13.998Z,15.77
2019-03-22T11:12:42.587Z,22.77
2019-03-22T11:15:12.807Z,14.80
2019-03-22T11:17:41.485Z,16.67
2019-03-22T11:20:15.795Z,14.80
2019-03-22T11:22:47.183Z,16.77
2019-03-22T11:25:15.918Z,14.67
2019-03-22T11:27:47.232Z,11.63
2019-03-22T11:30:18.435Z,11.83
2019-03-22T11:32:47.084Z,11.40
2019-03-22T11:35:15.830Z,9.90
2019-03-22T11:37:45.968Z,9.90
2019-03-22T11:40:16.085Z,12.47
2019-03-22T11:42:46.464Z,14.43
2019-03-22T11:45:20.448Z,7.90
2019-03-22T11:47:49.176Z,7.00
2019-03-22T11:50:17.811Z,7.63
2019-03-22T11:52:49.631Z,7.77
2019-03-22T11:55:18.336Z,7.63
2019-03-22T11:57:48.063Z,7.90
2019-03-22T12:00:22.386Z,10.97
2019-03-22T12:02:51.052Z,9.30
2019-03-22T12:05:20.353Z,8.73
2019-03-22T12:07:49.813Z,10.53
2019-03-22T12:10:27.828Z,8.07
2019-03-22T12:13:04.162Z,9.20
2019-03-22T12:15:33.062Z,8.27
2019-03-22T12:18:03.909Z,9.00
2019-03-22T12:20:32.218Z,7.77
2019-03-22T12:23:00.932Z,8.40
2019-03-22T12:25:32.589Z,5.70
2019-03-22T12:28:01.241Z,4.53
2019-03-22T12:30:29.802Z,6.93
2019-03-22T12:32:58.416Z,8.00
2019-03-22T12:35:27.025Z,7.30
2019-03-22T12:37:57.646Z,6.33
2019-03-22T12:40:25.998Z,8.77
2019-03-22T12:42:56.519Z,4.93
2019-03-22T12:45:29.799Z,7.10
2019-03-22T12:48:01.243Z,3.93
2019-03-22T12:50:33.139Z,3.80
2019-03-22T12:53:01.795Z,3.33
2019-03-22T12:55:30.362Z,3.77
2019-03-22T12:57:59.560Z,4.17
2019-03-22T13:00:28.376Z,8.40
2019-03-22T13:02:57.024Z,4.73
2019-03-22T13:05:25.606Z,3.07
2019-03-22T13:07:54.175Z,13.90
2019-03-22T13:10:25.834Z,4.30
2019-03-22T13:12:55.129Z,2.27
2019-03-22T13:15:23.892Z,5.43
2019-03-22T13:17:52.576Z,2.60
2019-03-22T13:20:23.915Z,2.10
2019-03-22T13:22:54.129Z,2.93
2019-03-22T13:25:27.225Z,5.80
2019-03-22T13:27:58.296Z,5.33
2019-03-22T13:30:49.069Z,4.37
2019-03-22T13:33:17.664Z,2.50
2019-03-22T13:35:46.253Z,3.47
2019-03-22T13:38:14.824Z,2.53
2019-03-22T13:40:44.958Z,2.57
2019-03-22T13:43:13.581Z,4.10
2019-03-22T13:45:42.185Z,3.77
2019-03-22T13:48:10.731Z,2.17
2019-03-22T13:50:39.322Z,3.10
2019-03-22T13:53:08.001Z,2.83
2019-03-22T13:55:38.204Z,2.77
2019-03-22T13:58:06.849Z,3.57
2019-03-22T14:00:36.342Z,2.10
2019-03-22T14:03:04.966Z,2.43
2019-03-22T14:05:39.308Z,4.03
2019-03-22T14:08:07.881Z,1.80
2019-03-22T14:10:36.928Z,3.67
2019-03-22T14:13:09.327Z,4.20
2019-03-22T14:15:37.921Z,3.83
2019-03-22T14:18:06.767Z,4.83
2019-03-22T14:20:35.389Z,2.73
2019-03-22T14:23:06.800Z,2.53
2019-03-22T14:25:35.455Z,2.93
2019-03-22T14:28:05.555Z,2.70
2019-03-22T14:30:38.450Z,1.67
2019-03-22T14:33:13.558Z,3.63
2019-03-22T14:35:40.734Z,3.23
2019-03-22T14:38:09.414Z,2.43
2019-03-22T14:40:39.562Z,4.23
2019-03-22T14:43:12.485Z,2.70
2019-03-22T14:45:47.920Z,1.77
2019-03-22T14:48:18.088Z,1.73
2019-03-22T14:50:51.276Z,2.00
2019-03-22T14:53:22.824Z,4.27
2019-03-22T14:55:57.087Z,2.00
2019-03-22T14:58:33.669Z,1.37
2019-03-22T15:01:02.295Z,1.93
2019-03-22T15:03:31.181Z,2.47
2019-03-22T15:05:59.828Z,1.67
2019-03-22T15:08:35.668Z,2.90
2019-03-22T15:11:09.870Z,1.73
2019-03-22T15:13:42.780Z,2.10
2019-03-22T15:16:31.695Z,1.27
2019-03-22T15:19:16.767Z,1.60
2019-03-22T15:22:06.094Z,1.77
2019-03-22T15:24:36.340Z,1.67
2019-03-22T15:27:09.146Z,7.00
2019-03-22T15:29:55.653Z,2.00
2019-03-22T15:32:25.856Z,1.97
2019-03-22T15:34:59.044Z,1.90
2019-03-22T15:37:45.771Z,1.87
2019-03-22T15:40:25.211Z,2.10
2019-03-22T15:42:55.015Z,2.23
2019-03-22T15:45:26.523Z,1.77
2019-03-22T15:47:55.217Z,2.50
2019-03-22T15:50:23.784Z,1.77
2019-03-22T15:52:55.693Z,3.40
2019-03-22T15:55:24.482Z,1.63
2019-03-22T15:57:53.168Z,1.67
2019-03-22T16:00:21.989Z,2.90
2019-03-22T16:02:54.334Z,2.07
2019-03-22T16:05:23.667Z,2.47
2019-03-22T16:07:52.294Z,1.97
2019-03-22T16:10:23.884Z,2.60
2019-03-22T16:12:52.467Z,1.87
2019-03-22T16:15:21.213Z,2.57
2019-03-22T16:17:49.781Z,1.30
2019-03-22T16:20:18.516Z,1.43
2019-03-22T16:22:49.219Z,2.00
2019-03-22T16:25:17.901Z,2.07
2019-03-22T16:27:46.560Z,2.60
2019-03-22T16:30:15.551Z,3.57
2019-03-22T16:32:44.231Z,2.10
2019-03-22T16:35:13.177Z,2.73
2019-03-22T16:37:41.764Z,2.10
2019-03-22T16:40:12.170Z,4.77
2019-03-22T16:42:40.727Z,1.87
2019-03-22T16:45:11.163Z,3.13
2019-03-22T16:47:41.268Z,2.27
2019-03-22T16:50:24.011Z,3.07
2019-03-22T16:52:52.595Z,1.93
2019-03-22T16:55:24.170Z,3.10
2019-03-22T16:57:52.759Z,3.50
2019-03-22T17:00:27.072Z,2.23
2019-03-22T17:03:02.353Z,2.00
2019-03-22T17:05:36.071Z,2.47
2019-03-22T17:08:06.941Z,1.80
2019-03-22T17:10:37.519Z,3.13
2019-03-22T17:13:07.380Z,4.63
2019-03-22T17:15:35.963Z,2.40
2019-03-22T17:18:05.738Z,1.97
2019-03-22T17:20:34.300Z,2.70
2019-03-22T17:23:03.059Z,5.43
2019-03-22T17:25:31.597Z,3.60
2019-03-22T17:28:00.242Z,3.97
2019-03-22T17:30:28.890Z,4.43
2019-03-22T17:33:01.364Z,5.07
2019-03-22T17:35:29.885Z,5.57
2019-03-22T17:37:58.549Z,6.33
2019-03-22T17:40:27.199Z,5.00
2019-03-22T17:42:55.785Z,8.40
2019-03-22T17:45:24.431Z,4.60
2019-03-22T17:47:53.029Z,4.63
2019-03-22T17:50:21.691Z,3.97
2019-03-22T17:52:50.267Z,3.60
2019-03-22T17:55:18.937Z,4.63
2019-03-22T17:57:47.491Z,5.43
2019-03-22T18:00:20.093Z,4.60
2019-03-22T18:02:48.755Z,8.87
2019-03-22T18:05:17.479Z,4.00
2019-03-22T18:07:46.405Z,4.93
2019-03-22T18:10:18.880Z,3.90
2019-03-22T18:12:54.901Z,5.03
2019-03-22T18:15:26.182Z,4.90
2019-03-22T18:17:57.455Z,8.50
2019-03-22T18:20:26.032Z,8.67
2019-03-22T18:22:54.658Z,7.90
2019-03-22T18:25:23.211Z,13.37
2019-03-22T18:27:52.344Z,10.40
2019-03-22T18:30:21.015Z,12.53
2019-03-22T18:32:51.721Z,14.10
2019-03-22T18:35:20.347Z,10.07
2019-03-22T18:37:48.912Z,14.27
2019-03-22T18:40:19.144Z,6.73
2019-03-22T18:42:47.880Z,6.17
2019-03-22T18:45:16.435Z,8.17
2019-03-22T18:47:45.054Z,6.30
2019-03-22T18:50:14.077Z,5.87
2019-03-22T18:52:42.789Z,5.10
2019-03-22T18:55:11.543Z,6.80
2019-03-22T18:57:40.178Z,5.57
2019-03-22T19:00:18.006Z,7.40
2019-03-22T19:02:46.643Z,5.23
2019-03-22T19:05:15.577Z,5.13
2019-03-22T19:07:44.165Z,5.77
2019-03-22T19:10:14.831Z,5.23
2019-03-22T19:12:43.406Z,5.33
2019-03-22T19:15:13.337Z,7.87
2019-03-22T19:17:42.060Z,6.37
2019-03-22T19:20:13.421Z,5.67
2019-03-22T19:22:42.124Z,5.70
2019-03-22T19:25:14.378Z,4.97
2019-03-22T19:27:42.719Z,6.77
2019-03-22T19:30:14.214Z,5.73
2019-03-22T19:32:42.896Z,8.70
2019-03-22T19:35:11.597Z,9.30
2019-03-22T19:37:42.897Z,7.43
2019-03-22T19:40:13.980Z,19.10
2019-03-22T19:42:43.083Z,10.53
2019-03-22T19:45:19.931Z,11.33
2019-03-22T19:47:48.469Z,8.40
2019-03-22T19:50:18.005Z,7.80
2019-03-22T19:52:50.081Z,6.57
2019-03-22T19:55:21.538Z,8.00
2019-03-22T19:57:50.217Z,7.57
2019-03-22T20:00:20.009Z,10.80
2019-03-22T20:02:49.374Z,10.27
2019-03-22T20:05:32.276Z,9.93
2019-03-22T20:08:13.654Z,9.13
2019-03-22T20:10:40.284Z,12.83
2019-03-22T20:13:11.366Z,10.67
2019-03-22T20:15:39.947Z,10.77
2019-03-22T20:18:08.616Z,11.80
2019-03-22T20:20:37.217Z,10.17
2019-03-22T20:23:05.959Z,14.20
2019-03-22T20:25:34.604Z,12.00
2019-03-22T20:28:03.202Z,12.77
2019-03-22T20:30:31.825Z,13.00
2019-03-22T20:33:02.969Z,13.83
2019-03-22T20:35:31.618Z,11.63
2019-03-22T20:38:00.247Z,12.00
2019-03-22T20:40:31.421Z,11.40
2019-03-22T20:43:02.585Z,18.53
2019-03-22T20:45:31.172Z,13.53
2019-03-22T20:47:59.765Z,15.80
2019-03-22T20:50:35.847Z,12.63
2019-03-22T20:53:02.658Z,15.50
2019-03-22T20:55:32.847Z,12.20
2019-03-22T20:58:01.436Z,9.67
2019-03-22T21:00:30.271Z,12.80
2019-03-22T21:02:58.876Z,10.87
2019-03-22T21:05:29.109Z,13.07
2019-03-22T21:07:57.758Z,10.97
2019-03-22T21:10:26.371Z,15.17
2019-03-22T21:12:54.961Z,13.47
2019-03-22T21:15:24.971Z,12.77
2019-03-22T21:17:53.550Z,12.33
2019-03-22T21:20:22.178Z,13.00
2019-03-22T21:22:50.854Z,15.23
2019-03-22T21:25:19.569Z,19.87
2019-03-22T21:27:48.265Z,15.00
2019-03-22T21:30:16.973Z,15.87
2019-03-22T21:32:46.531Z,15.30
2019-03-22T21:35:22.369Z,15.33
2019-03-22T21:43:23.819Z,13.93
2019-03-22T21:45:52.416Z,14.20
2019-03-22T21:48:21.040Z,11.93
2019-03-22T21:50:51.148Z,13.67
2019-03-22T21:53:19.839Z,13.83
2019-03-22T21:55:58.477Z,12.00
2019-03-22T21:58:27.090Z,14.90
2019-03-22T22:00:56.012Z,12.67
2019-03-22T22:03:24.689Z,13.77
2019-03-22T22:05:56.333Z,16.50
2019-03-22T22:08:24.931Z,13.00
2019-03-22T22:10:59.650Z,15.90
2019-03-22T22:13:23.889Z,17.33
2019-03-22T22:15:52.490Z,17.07
2019-03-22T22:18:21.074Z,14.80
2019-03-22T22:20:49.672Z,16.53
2019-03-22T22:23:18.371Z,12.40
2019-03-22T22:25:46.877Z,14.00
2019-03-22T22:28:17.087Z,17.07
2019-03-22T22:30:48.413Z,13.93
2019-03-22T22:33:17.059Z,11.90
2019-03-22T22:35:46.972Z,16.20
2019-03-22T22:38:15.561Z,13.23
2019-03-22T22:40:45.741Z,13.83
2019-03-22T22:43:14.431Z,14.47
2019-03-22T22:45:45.247Z,15.50
2019-03-22T22:48:16.902Z,12.63
2019-03-22T22:50:45.467Z,15.30
2019-03-22T22:53:14.040Z,12.10
2019-03-22T22:55:52.330Z,12.60
2019-03-22T22:58:29.741Z,15.23
2019-03-22T23:01:10.304Z,13.10
2019-03-22T23:03:51.873Z,15.93
2019-03-22T23:06:23.470Z,14.77
2019-03-22T23:09:17.195Z,14.63
2019-03-22T23:11:45.811Z,13.77
2019-03-22T23:14:14.572Z,13.20
2019-03-22T23:16:43.218Z,14.03
2019-03-22T23:19:11.821Z,12.83
2019-03-22T23:21:40.460Z,14.17
2019-03-22T23:24:09.069Z,15.17
2019-03-22T23:26:37.633Z,16.90
2019-03-22T23:29:07.887Z,16.20
2019-03-22T23:31:36.483Z,11.50
2019-03-22T23:34:06.667Z,11.63
2019-03-22T23:36:35.354Z,12.07
2019-03-22T23:39:05.458Z,11.37
2019-03-22T23:41:34.044Z,11.07
2019-03-22T23:44:02.721Z,12.00
2019-03-22T23:46:31.273Z,11.00
2019-03-22T23:48:59.876Z,10.67
2019-03-22T23:51:30.157Z,14.17
2019-03-22T23:53:58.744Z,13.80
2019-03-22T23:56:27.327Z,11.03
2019-03-22T23:58:55.902Z,12.27
